Time;durP1;ratioP1;P1;durP2;ratioP2;P2;SDS_P1;SDS_P2;PMS_P1;PMS_P2;Temp;Humidity;BMP_temperature;BMP_pressure;BME280_temperature;BME280_humidity;BME280_pressure;Samples;Min_cycle;Max_cycle;Signal;HPM_P1;HPM_P2
2022/08/20 00:00:38;;;;;;;8.93;6.55;;;19.80;99.90;;;;;;5054513;28;20051;-79
2022/08/20 00:03:19;;;;;;;9.70;7.18;;;19.80;99.90;;;;;;5065964;28;20052;-78
2022/08/20 00:05:52;;;;;;;8.77;6.47;;;19.80;99.90;;;;;;5044986;28;20045;-77
2022/08/20 00:08:17;;;;;;;9.43;7.20;;;19.80;99.90;;;;;;5036987;28;20040;-78
2022/08/20 00:10:45;;;;;;;10.88;7.15;;;19.80;99.90;;;;;;5028110;28;20543;-77
2022/08/20 00:13:15;;;;;;;9.32;7.03;;;19.80;99.90;;;;;;5065180;28;20052;-79
2022/08/20 00:15:41;;;;;;;11.02;7.68;;;19.80;99.90;;;;;;5036653;28;20493;-78
2022/08/20 00:18:07;;;;;;;10.25;7.93;;;19.70;99.90;;;;;;5033148;28;20033;-79
2022/08/20 00:20:38;;;;;;;11.05;7.65;;;19.70;99.90;;;;;;5050542;28;20095;-77
2022/08/20 00:23:04;;;;;;;9.95;7.88;;;19.60;99.90;;;;;;5034007;28;20512;-77
2022/08/20 00:25:30;;;;;;;10.90;7.47;;;19.60;99.90;;;;;;5018807;28;20044;-77
2022/08/20 00:27:56;;;;;;;10.25;8.00;;;19.60;99.90;;;;;;5053833;28;20041;-78
2022/08/20 00:30:23;;;;;;;10.77;7.28;;;19.50;99.90;;;;;;5052888;28;20045;-78
2022/08/20 00:32:58;;;;;;;10.77;7.45;;;19.50;99.90;;;;;;5032558;28;20042;-78
2022/08/20 00:35:27;;;;;;;10.90;7.65;;;19.40;99.90;;;;;;5050244;28;20053;-76
2022/08/20 00:37:53;;;;;;;8.70;6.43;;;19.40;99.90;;;;;;5037108;28;20063;-76
2022/08/20 00:40:23;;;;;;;11.23;7.50;;;19.30;99.90;;;;;;5036358;28;20734;-77
2022/08/20 00:42:52;;;;;;;9.80;7.13;;;19.30;99.90;;;;;;5053615;28;20041;-78
2022/08/20 00:45:19;;;;;;;10.43;7.43;;;19.30;99.90;;;;;;5053750;28;20048;-79
2022/08/20 00:47:46;;;;;;;10.18;6.47;;;19.30;99.90;;;;;;5052479;28;20136;-77
2022/08/20 00:50:17;;;;;;;10.88;7.28;;;19.30;99.90;;;;;;5036656;28;20037;-77
2022/08/20 00:52:48;;;;;;;8.85;6.50;;;19.20;99.90;;;;;;5037311;28;20041;-77
2022/08/20 00:55:16;;;;;;;9.20;6.18;;;19.30;99.90;;;;;;5033383;28;20045;-78
2022/08/20 00:57:47;;;;;;;7.95;6.55;;;19.30;99.90;;;;;;5033460;28;20493;-76
2022/08/20 01:00:16;;;;;;;9.55;7.03;;;19.30;99.90;;;;;;5034064;28;20040;-75
2022/08/20 01:02:42;;;;;;;10.65;6.97;;;19.30;99.90;;;;;;5051331;28;20089;-75
2022/08/20 01:05:08;;;;;;;10.00;7.13;;;19.30;99.90;;;;;;5036107;28;20502;-76
2022/08/20 01:07:36;;;;;;;11.20;7.50;;;19.30;99.90;;;;;;5033287;28;20092;-74
2022/08/20 01:10:09;;;;;;;8.88;6.28;;;19.30;99.90;;;;;;5052820;28;20045;-73
2022/08/20 01:12:38;;;;;;;9.85;6.18;;;19.30;99.90;;;;;;5020501;28;20048;-74
2022/08/20 01:15:08;;;;;;;10.10;6.70;;;19.30;99.90;;;;;;5031890;28;20184;-74
2022/08/20 01:17:35;;;;;;;10.18;6.55;;;19.30;99.90;;;;;;5015938;28;20044;-75
2022/08/20 01:20:10;;;;;;;10.55;6.45;;;19.20;99.90;;;;;;5046213;28;20045;-74
2022/08/20 01:26:03;;;;;;;10.27;6.72;;;19.20;99.90;;;;;;5048602;28;20490;-74
2022/08/20 01:28:37;;;;;;;8.57;5.85;;;19.10;99.90;;;;;;5039471;28;20282;-74
2022/08/20 01:31:07;;;;;;;11.30;6.55;;;19.10;99.90;;;;;;5050279;28;20371;-78
2022/08/20 01:33:33;;;;;;;9.88;6.60;;;19.00;99.90;;;;;;5016108;28;20045;-76
2022/08/20 01:35:59;;;;;;;9.18;5.70;;;19.00;99.90;;;;;;5032643;28;20128;-80
2022/08/20 01:38:26;;;;;;;10.85;6.18;;;18.90;99.90;;;;;;5042453;28;20119;-77
2022/08/20 01:41:21;;;;;;;9.05;5.72;;;18.90;99.90;;;;;;5049009;28;20032;-78
2022/08/20 01:43:55;;;;;;;12.68;6.20;;;18.80;99.90;;;;;;5035777;28;20037;-75
2022/08/20 01:46:42;;;;;;;11.98;6.05;;;18.80;99.90;;;;;;5052589;28;20132;-75
2022/08/20 01:49:31;;;;;;;11.25;6.20;;;18.80;99.90;;;;;;5068234;28;20037;-76
2022/08/20 01:52:00;;;;;;;10.07;5.72;;;18.80;99.90;;;;;;5039660;28;20041;-77
2022/08/20 01:54:27;;;;;;;8.90;5.70;;;18.80;99.90;;;;;;5047427;28;20041;-76
2022/08/20 01:57:05;;;;;;;9.95;6.18;;;18.80;99.90;;;;;;5052209;28;20150;-77
2022/08/20 01:59:31;;;;;;;8.43;5.80;;;18.70;99.90;;;;;;5035045;28;20448;-74
2022/08/20 02:01:57;;;;;;;8.80;5.43;;;18.80;99.90;;;;;;5022674;28;20041;-74
2022/08/20 02:04:24;;;;;;;9.98;5.60;;;18.80;99.90;;;;;;5067645;28;20513;-75
2022/08/20 02:06:53;;;;;;;9.80;5.43;;;18.70;99.90;;;;;;5035452;28;20520;-77
2022/08/20 02:09:20;;;;;;;8.30;5.22;;;18.70;99.90;;;;;;5025379;28;20500;-76
2022/08/20 02:11:46;;;;;;;7.72;5.10;;;18.70;99.90;;;;;;5047065;28;20040;-76
2022/08/20 02:14:13;;;;;;;9.15;5.13;;;18.60;99.90;;;;;;5026456;28;20094;-76
2022/08/20 02:16:42;;;;;;;9.35;5.35;;;18.60;99.90;;;;;;5033334;28;20041;-76
2022/08/20 02:19:15;;;;;;;10.10;5.55;;;18.60;99.90;;;;;;5037337;28;20053;-76
2022/08/20 02:21:47;;;;;;;8.95;5.40;;;18.60;99.90;;;;;;5035091;28;20041;-75
2022/08/20 02:24:13;;;;;;;10.02;5.13;;;18.50;99.90;;;;;;5051376;28;20086;-78
2022/08/20 02:26:39;;;;;;;11.77;4.93;;;18.60;99.90;;;;;;5035545;28;20032;-79
2022/08/20 02:29:08;;;;;;;8.82;5.03;;;18.60;99.90;;;;;;5050459;28;20120;-78
2022/08/20 02:31:35;;;;;;;9.18;4.55;;;18.60;99.90;;;;;;5054471;28;20044;-77
2022/08/20 02:34:02;;;;;;;10.80;5.80;;;18.50;99.90;;;;;;5038554;28;20075;-78
2022/08/20 02:36:28;;;;;;;9.70;5.90;;;18.50;99.90;;;;;;5054618;28;20060;-80
2022/08/20 02:38:53;;;;;;;10.25;5.88;;;18.40;99.90;;;;;;5044720;28;20130;-80
2022/08/20 02:41:21;;;;;;;10.15;5.72;;;18.50;99.90;;;;;;5046676;28;20398;-79
2022/08/20 02:43:48;;;;;;;9.45;4.75;;;18.40;99.90;;;;;;5054053;28;20041;-79
2022/08/20 02:46:15;;;;;;;7.82;4.20;;;18.40;99.90;;;;;;5031090;28;20096;-79
2022/08/20 02:48:41;;;;;;;9.55;5.03;;;18.40;99.90;;;;;;5027932;28;20037;-79
2022/08/20 02:51:07;;;;;;;8.82;5.43;;;18.30;99.90;;;;;;5050549;28;20551;-78
2022/08/20 02:53:36;;;;;;;7.53;4.32;;;18.40;99.90;;;;;;5046731;28;20087;-78
2022/08/20 02:56:04;;;;;;;5.85;3.30;;;18.40;99.90;;;;;;5053823;28;20033;-78
2022/08/20 02:58:31;;;;;;;5.72;3.28;;;18.30;99.90;;;;;;5034959;28;20048;-77
2022/08/20 03:00:57;;;;;;;4.30;2.90;;;18.30;99.90;;;;;;5043535;28;20037;-76
2022/08/20 03:03:23;;;;;;;5.38;2.78;;;18.30;99.90;;;;;;5034745;28;20101;-77
2022/08/20 03:05:52;;;;;;;4.50;2.00;;;18.30;99.90;;;;;;5056640;28;20055;-77
2022/08/20 03:08:17;;;;;;;3.30;1.95;;;18.30;99.90;;;;;;5034812;28;20049;-77
2022/08/20 03:10:45;;;;;;;3.65;1.95;;;18.30;99.90;;;;;;5044214;28;20044;-77
2022/08/20 03:13:12;;;;;;;1.58;1.25;;;18.30;99.90;;;;;;5038758;28;20110;-77
2022/08/20 03:15:46;;;;;;;2.25;1.40;;;18.20;99.90;;;;;;5053986;28;20048;-77
2022/08/20 03:18:12;;;;;;;2.92;1.30;;;18.20;99.90;;;;;;5037539;28;20033;-76
2022/08/20 03:20:39;;;;;;;2.85;1.45;;;18.10;99.90;;;;;;5038717;28;20044;-78
2022/08/20 03:23:05;;;;;;;3.45;1.60;;;18.10;99.90;;;;;;5054230;28;20532;-77
2022/08/20 03:25:30;;;;;;;4.38;2.30;;;18.10;99.90;;;;;;5037485;28;20041;-76
2022/08/20 03:27:56;;;;;;;4.00;2.15;;;18.10;99.90;;;;;;5054908;28;20033;-75
2022/08/20 03:30:24;;;;;;;4.38;2.70;;;18.00;99.90;;;;;;5054463;28;20044;-77
2022/08/20 03:32:50;;;;;;;8.63;3.72;;;17.90;99.90;;;;;;5038105;28;20052;-76
2022/08/20 03:35:18;;;;;;;7.63;3.30;;;17.90;99.90;;;;;;5037434;28;20405;-77
2022/08/20 03:37:44;;;;;;;5.25;2.25;;;17.80;99.90;;;;;;5038131;28;20037;-76
2022/08/20 03:40:15;;;;;;;6.35;3.50;;;17.90;99.90;;;;;;5036899;28;20515;-76
2022/08/20 03:42:40;;;;;;;6.18;3.40;;;17.90;99.90;;;;;;5053423;28;20043;-76
2022/08/20 03:45:08;;;;;;;10.15;3.70;;;17.90;99.90;;;;;;5037195;28;20052;-76
2022/08/20 03:47:34;;;;;;;8.57;4.13;;;17.90;99.90;;;;;;5057794;28;20051;-76
2022/08/20 03:50:01;;;;;;;6.75;3.95;;;17.90;99.90;;;;;;5037997;28;20413;-75
2022/08/20 03:52:28;;;;;;;8.13;4.70;;;17.80;99.90;;;;;;5036735;28;20543;-76
2022/08/20 03:54:54;;;;;;;7.00;4.03;;;17.80;99.90;;;;;;5054370;28;20540;-75
2022/08/20 03:57:20;;;;;;;6.18;3.47;;;17.80;99.90;;;;;;5052399;28;20064;-76
2022/08/20 03:59:46;;;;;;;7.32;4.63;;;17.70;99.90;;;;;;5036741;28;20040;-76
2022/08/20 04:02:11;;;;;;;7.72;4.30;;;17.60;99.90;;;;;;5048339;28;20037;-76
2022/08/20 04:04:39;;;;;;;8.10;4.13;;;17.60;99.90;;;;;;5051705;28;20082;-75
2022/08/20 04:07:13;;;;;;;9.13;5.13;;;17.60;99.90;;;;;;5037122;28;20052;-76
2022/08/20 04:09:39;;;;;;;9.07;4.78;;;17.60;99.90;;;;;;5053583;28;20045;-76
2022/08/20 04:12:06;;;;;;;8.48;4.20;;;17.60;99.90;;;;;;5052140;28;20120;-76
2022/08/20 04:14:32;;;;;;;7.10;2.97;;;17.60;99.90;;;;;;5035962;28;20103;-75
2022/08/20 04:16:58;;;;;;;5.57;2.97;;;17.70;99.90;;;;;;5032797;28;20029;-75
2022/08/20 04:19:24;;;;;;;4.75;2.88;;;17.70;99.90;;;;;;5052042;28;20378;-76
2022/08/20 04:21:49;;;;;;;6.55;3.10;;;17.70;99.90;;;;;;5053467;28;20040;-75
2022/08/20 04:24:15;;;;;;;9.27;3.85;;;17.60;99.90;;;;;;5035679;28;20034;-76
2022/08/20 04:26:41;;;;;;;6.95;3.50;;;17.60;99.90;;;;;;5053834;28;20045;-76
2022/08/20 04:29:07;;;;;;;8.32;4.28;;;17.60;99.90;;;;;;5051752;28;20126;-76
2022/08/20 04:31:33;;;;;;;8.38;4.05;;;17.60;99.90;;;;;;5053768;28;20516;-76
2022/08/20 04:34:06;;;;;;;8.73;3.67;;;17.60;99.90;;;;;;5052412;28;20317;-76
2022/08/20 04:36:33;;;;;;;8.85;4.47;;;17.50;99.90;;;;;;5051595;28;20056;-76
2022/08/20 04:38:59;;;;;;;7.07;3.50;;;17.60;99.90;;;;;;5040835;28;20040;-76
2022/08/20 04:41:25;;;;;;;5.03;2.78;;;17.60;99.90;;;;;;5050864;28;20430;-75
2022/08/20 04:43:52;;;;;;;6.40;2.85;;;17.60;99.90;;;;;;5049527;28;20103;-75
2022/08/20 04:46:19;;;;;;;5.45;2.38;;;17.70;99.90;;;;;;5042161;28;20049;-75
2022/08/20 04:48:45;;;;;;;5.63;2.55;;;17.70;99.90;;;;;;5068737;28;20044;-75
2022/08/20 04:51:13;;;;;;;3.75;2.05;;;17.70;99.90;;;;;;5034753;28;20504;-76
2022/08/20 04:53:40;;;;;;;4.50;2.22;;;17.70;99.90;;;;;;5034726;28;20041;-75
2022/08/20 04:56:06;;;;;;;3.85;2.40;;;17.60;99.90;;;;;;5051668;28;20041;-76
2022/08/20 04:58:37;;;;;;;3.67;2.30;;;17.60;99.90;;;;;;5042183;28;20592;-76
2022/08/20 05:01:08;;;;;;;5.47;2.63;;;17.70;99.90;;;;;;5049262;28;20498;-75
2022/08/20 05:03:36;;;;;;;5.82;2.97;;;17.70;99.90;;;;;;5039710;28;20048;-75
2022/08/20 05:06:03;;;;;;;6.88;3.55;;;17.70;99.90;;;;;;5049178;28;20076;-75
2022/08/20 05:08:29;;;;;;;7.80;3.65;;;17.60;99.90;;;;;;5026687;28;20462;-76
2022/08/20 05:10:56;;;;;;;7.70;3.90;;;17.60;99.90;;;;;;5033610;28;20072;-75
2022/08/20 05:13:22;;;;;;;7.97;4.07;;;17.60;99.90;;;;;;5068330;28;20068;-75
2022/08/20 05:15:48;;;;;;;8.38;4.47;;;17.60;99.90;;;;;;5051043;28;20040;-75
2022/08/20 05:18:17;;;;;;;8.98;4.13;;;17.50;99.90;;;;;;5047659;28;20060;-75
2022/08/20 05:20:45;;;;;;;10.65;4.28;;;17.50;99.90;;;;;;5046208;28;20040;-75
2022/08/20 05:23:13;;;;;;;11.60;4.53;;;17.50;99.90;;;;;;5050304;28;20045;-75
2022/08/20 05:25:41;;;;;;;9.10;4.28;;;17.40;99.90;;;;;;5052995;28;20076;-75
2022/08/20 05:28:11;;;;;;;6.93;4.03;;;17.30;99.90;;;;;;5051661;28;20524;-75
2022/08/20 05:30:40;;;;;;;9.63;4.20;;;17.30;99.90;;;;;;5041566;28;20041;-75
2022/08/20 05:33:07;;;;;;;10.18;4.25;;;17.20;99.90;;;;;;5035836;28;20036;-75
2022/08/20 05:35:37;;;;;;;12.77;4.50;;;17.20;99.90;;;;;;5049205;28;20125;-75
2022/08/20 05:38:03;;;;;;;7.55;3.72;;;17.10;99.90;;;;;;5052532;28;20041;-75
2022/08/20 05:40:29;;;;;;;10.25;4.35;;;17.10;99.90;;;;;;5017405;28;20512;-75
2022/08/20 05:42:55;;;;;;;8.52;3.53;;;17.10;99.90;;;;;;5027431;28;20064;-75
2022/08/20 05:45:21;;;;;;;7.88;3.67;;;17.10;99.90;;;;;;5040710;28;20524;-75
2022/08/20 05:47:47;;;;;;;9.50;4.25;;;17.00;99.90;;;;;;5042936;28;20037;-75
2022/08/20 05:50:14;;;;;;;9.40;4.30;;;17.10;99.90;;;;;;5047072;28;20094;-75
2022/08/20 05:52:40;;;;;;;8.05;3.88;;;17.00;99.90;;;;;;5026024;28;20041;-75
2022/08/20 05:55:08;;;;;;;8.18;3.50;;;17.10;99.90;;;;;;5036657;28;20143;-75
2022/08/20 05:57:35;;;;;;;9.60;3.80;;;17.10;99.90;;;;;;5042673;28;20119;-75
2022/08/20 06:00:03;;;;;;;7.82;3.33;;;17.20;99.90;;;;;;5035157;28;20040;-75
2022/08/20 06:05:13;;;;;;;10.85;3.55;;;17.30;99.90;;;;;;5035602;28;20131;-75
2022/08/20 06:07:38;;;;;;;8.07;3.95;;;17.40;99.90;;;;;;5048856;28;20116;-76
2022/08/20 06:10:06;;;;;;;10.02;3.60;;;17.40;99.90;;;;;;5044997;28;20481;-76
2022/08/20 06:12:32;;;;;;;7.72;3.30;;;17.40;99.90;;;;;;5043227;28;20049;-75
2022/08/20 06:14:59;;;;;;;8.82;3.53;;;17.50;99.90;;;;;;5031067;28;20048;-75
2022/08/20 06:17:24;;;;;;;7.13;3.28;;;17.50;99.90;;;;;;5068182;28;20094;-75
2022/08/20 06:19:50;;;;;;;7.28;3.25;;;17.50;99.90;;;;;;5047674;28;20041;-76
2022/08/20 06:22:16;;;;;;;7.95;3.45;;;17.50;99.90;;;;;;5049510;28;20524;-75
2022/08/20 06:24:42;;;;;;;8.05;3.20;;;17.50;99.90;;;;;;5045831;28;20045;-75
2022/08/20 06:27:13;;;;;;;8.00;3.40;;;17.60;99.90;;;;;;5045721;28;20478;-76
2022/08/20 06:29:38;;;;;;;8.43;3.45;;;17.60;99.90;;;;;;5042344;28;20397;-75
2022/08/20 06:32:04;;;;;;;8.15;3.30;;;17.70;99.90;;;;;;5030757;28;20044;-74
2022/08/20 06:34:30;;;;;;;7.97;3.13;;;17.80;99.90;;;;;;5028978;28;20056;-75
2022/08/20 06:36:57;;;;;;;7.95;3.40;;;17.90;99.90;;;;;;5027376;28;20029;-75
2022/08/20 06:39:24;;;;;;;8.00;2.85;;;18.00;99.90;;;;;;5054085;28;20075;-75
2022/08/20 06:41:50;;;;;;;9.48;3.28;;;18.10;99.90;;;;;;5026366;28;20179;-75
2022/08/20 06:44:17;;;;;;;8.32;3.20;;;18.10;99.90;;;;;;5050504;28;20089;-75
2022/08/20 06:46:44;;;;;;;10.25;2.97;;;18.20;99.90;;;;;;5044562;28;20079;-75
2022/08/20 06:49:10;;;;;;;8.15;2.85;;;18.20;99.90;;;;;;5034813;28;20033;-75
2022/08/20 06:51:38;;;;;;;11.00;3.03;;;18.30;99.90;;;;;;5029858;28;20051;-75
2022/08/20 06:54:04;;;;;;;8.15;2.85;;;18.40;99.90;;;;;;5044229;28;20140;-75
2022/08/20 06:56:31;;;;;;;8.60;2.78;;;18.40;99.90;;;;;;5045134;28;20551;-75
2022/08/20 06:58:57;;;;;;;7.88;2.63;;;18.40;99.90;;;;;;5032904;28;20037;-75
2022/08/20 07:01:23;;;;;;;9.25;2.90;;;18.40;99.90;;;;;;5051017;28;20040;-75
2022/08/20 07:03:49;;;;;;;11.50;2.50;;;18.40;99.90;;;;;;5032312;28;20044;-75
2022/08/20 07:06:16;;;;;;;8.57;2.80;;;18.40;99.90;;;;;;5047770;28;20042;-75
2022/08/20 07:08:42;;;;;;;7.07;2.33;;;18.50;99.90;;;;;;5038291;28;20072;-75
2022/08/20 07:11:09;;;;;;;9.65;2.33;;;18.60;99.90;;;;;;5047415;28;20417;-75
2022/08/20 07:13:36;;;;;;;7.68;2.00;;;18.70;99.90;;;;;;5051390;28;20045;-74
2022/08/20 07:16:03;;;;;;;6.90;2.10;;;18.70;99.90;;;;;;5030480;28;20109;-74
2022/08/20 07:18:29;;;;;;;11.05;2.38;;;18.80;99.90;;;;;;5037217;28;20067;-75
2022/08/20 07:20:56;;;;;;;8.55;2.13;;;18.90;99.90;;;;;;5050152;28;20703;-74
2022/08/20 07:23:23;;;;;;;7.47;1.75;;;19.00;99.90;;;;;;5051731;28;20501;-75
2022/08/20 07:25:48;;;;;;;9.52;1.77;;;19.00;99.90;;;;;;5037817;28;20044;-75
2022/08/20 07:28:17;;;;;;;7.53;2.05;;;19.10;99.90;;;;;;5038644;28;20387;-75
2022/08/20 07:33:30;;;;;;;8.77;1.50;;;19.20;99.90;;;;;;5087839;28;20045;-74
2022/08/20 07:35:57;;;;;;;6.95;2.08;;;19.30;99.90;;;;;;5053710;28;20087;-74
2022/08/20 07:38:24;;;;;;;10.13;1.80;;;19.30;99.90;;;;;;5063168;28;20036;-74
2022/08/20 07:40:59;;;;;;;3.70;1.55;;;19.30;99.90;;;;;;5050242;28;20424;-71
2022/08/20 07:43:26;;;;;;;7.90;1.85;;;19.30;99.90;;;;;;5068153;28;20044;-75
2022/08/20 07:45:59;;;;;;;7.25;1.58;;;19.30;99.90;;;;;;5053739;28;20063;-74
2022/08/20 07:48:27;;;;;;;8.43;1.55;;;19.30;99.90;;;;;;5066328;28;20041;-75
2022/08/20 07:50:54;;;;;;;8.75;1.75;;;19.30;99.90;;;;;;5050434;28;20398;-74
2022/08/20 07:53:19;;;;;;;7.53;1.48;;;19.40;99.90;;;;;;5033151;28;20041;-74
2022/08/20 07:55:45;;;;;;;5.32;1.40;;;19.50;99.90;;;;;;5066942;28;20041;-74
2022/08/20 07:58:13;;;;;;;7.45;1.85;;;19.60;99.90;;;;;;5053120;28;20033;-74
2022/08/20 08:00:39;;;;;;;6.70;1.40;;;19.70;99.90;;;;;;5045651;28;20057;-74
2022/08/20 08:03:06;;;;;;;9.98;1.45;;;19.80;99.90;;;;;;5017544;28;20042;-74
2022/08/20 08:05:34;;;;;;;7.53;1.50;;;20.00;99.90;;;;;;5035388;28;20094;-74
2022/08/20 08:08:01;;;;;;;7.55;1.35;;;20.10;99.90;;;;;;5049836;28;20047;-74
2022/08/20 08:10:27;;;;;;;6.05;1.45;;;20.20;99.90;;;;;;5051422;28;20075;-74
2022/08/20 08:12:57;;;;;;;6.50;1.40;;;20.30;99.90;;;;;;5045981;28;20037;-73
2022/08/20 08:15:31;;;;;;;6.68;1.20;;;20.40;99.90;;;;;;5045030;28;20061;-73
2022/08/20 08:18:06;;;;;;;7.63;1.50;;;20.50;99.90;;;;;;5023798;28;20087;-74
2022/08/20 08:20:37;;;;;;;5.43;1.17;;;20.50;99.90;;;;;;5033439;28;20371;-74
2022/08/20 08:23:03;;;;;;;6.65;1.30;;;20.60;99.90;;;;;;5027322;28;20091;-74
2022/08/20 08:25:31;;;;;;;6.47;1.20;;;20.60;99.90;;;;;;5050860;28;20033;-73
2022/08/20 08:27:59;;;;;;;6.65;1.30;;;20.60;99.90;;;;;;5050153;28;20450;-73
2022/08/20 08:30:25;;;;;;;7.65;1.48;;;20.70;99.90;;;;;;5032709;28;20041;-73
2022/08/20 08:35:37;;;;;;;5.40;1.42;;;20.80;99.90;;;;;;5035742;28;20136;-73
2022/08/20 08:38:03;;;;;;;4.35;1.13;;;20.80;99.90;;;;;;5045030;28;20390;-73
2022/08/20 08:40:30;;;;;;;6.35;1.45;;;20.90;99.90;;;;;;5065786;28;20036;-73
2022/08/20 08:43:01;;;;;;;6.95;1.40;;;20.80;99.90;;;;;;5046959;28;20048;-73
2022/08/20 08:45:32;;;;;;;8.57;1.50;;;21.00;99.90;;;;;;5023407;28;20041;-73
2022/08/20 08:47:58;;;;;;;6.05;1.52;;;21.00;99.90;;;;;;5048598;28;20043;-73
2022/08/20 08:50:32;;;;;;;8.55;1.23;;;21.10;99.90;;;;;;5039619;28;20045;-72
2022/08/20 08:53:01;;;;;;;7.72;1.17;;;21.10;99.90;;;;;;5042214;28;20413;-73
2022/08/20 08:55:29;;;;;;;6.55;1.40;;;21.30;99.90;;;;;;5032348;28;20041;-73
2022/08/20 08:57:58;;;;;;;7.85;1.52;;;21.30;99.90;;;;;;5034761;28;20114;-73
2022/08/20 09:00:27;;;;;;;6.82;1.45;;;21.30;99.90;;;;;;5051401;28;20096;-73
2022/08/20 09:03:01;;;;;;;7.10;1.10;;;21.40;99.90;;;;;;5046841;28;20033;-73
2022/08/20 09:05:38;;;;;;;7.13;1.25;;;21.50;99.90;;;;;;5043845;28;20092;-73
2022/08/20 09:08:10;;;;;;;7.80;1.10;;;21.50;99.90;;;;;;5050662;28;20045;-73
2022/08/20 09:10:37;;;;;;;7.22;1.30;;;21.60;99.90;;;;;;5039568;28;20148;-72
2022/08/20 09:13:04;;;;;;;6.28;1.30;;;21.60;99.90;;;;;;5067258;28;20041;-72
2022/08/20 09:15:30;;;;;;;3.95;0.95;;;21.70;99.90;;;;;;5018835;28;20132;-73
2022/08/20 09:17:55;;;;;;;7.38;1.30;;;21.70;99.90;;;;;;5033026;28;20075;-72
2022/08/20 09:20:21;;;;;;;6.68;1.20;;;21.80;99.90;;;;;;5032335;28;20107;-72
2022/08/20 09:22:47;;;;;;;6.63;1.17;;;21.90;99.90;;;;;;5016065;28;20041;-73
2022/08/20 09:25:13;;;;;;;4.38;1.00;;;21.90;99.90;;;;;;5066849;28;20124;-72
2022/08/20 09:27:39;;;;;;;6.60;1.30;;;21.90;99.90;;;;;;5026315;28;20063;-73
2022/08/20 09:30:05;;;;;;;7.63;1.30;;;21.70;99.90;;;;;;5049434;28;20087;-73
2022/08/20 09:32:30;;;;;;;8.40;1.30;;;21.50;99.90;;;;;;5049347;28;20041;-72
2022/08/20 09:34:58;;;;;;;5.95;1.27;;;21.40;99.90;;;;;;5039353;28;20068;-73
2022/08/20 09:37:27;;;;;;;3.90;1.00;;;21.40;99.90;;;;;;5037944;28;20040;-72
2022/08/20 09:39:53;;;;;;;5.72;1.20;;;21.40;99.90;;;;;;5043025;28;20573;-72
2022/08/20 09:42:30;;;;;;;5.70;1.10;;;21.50;99.90;;;;;;5050502;28;20485;-72
2022/08/20 09:44:56;;;;;;;4.25;1.08;;;21.70;99.90;;;;;;5034109;28;20048;-72
2022/08/20 09:47:22;;;;;;;6.10;1.20;;;21.70;99.90;;;;;;5064992;28;20037;-72
2022/08/20 09:49:47;;;;;;;5.10;1.38;;;21.70;99.90;;;;;;5045064;28;20592;-73
2022/08/20 09:52:28;;;;;;;8.65;1.20;;;21.70;99.90;;;;;;5052140;28;20090;-72
2022/08/20 09:54:57;;;;;;;7.60;1.17;;;21.70;99.90;;;;;;5050029;28;20048;-72
2022/08/20 09:57:24;;;;;;;6.43;1.25;;;21.80;99.90;;;;;;5060574;28;20033;-73
2022/08/20 09:59:56;;;;;;;8.05;1.33;;;21.90;99.90;;;;;;5063129;28;20037;-72
2022/08/20 10:02:22;;;;;;;7.22;1.33;;;22.00;99.90;;;;;;5059053;28;20440;-73
2022/08/20 10:04:47;;;;;;;7.45;1.30;;;21.90;99.90;;;;;;5034539;28;20065;-73
2022/08/20 10:07:13;;;;;;;7.20;1.25;;;21.90;99.90;;;;;;5043949;28;20439;-73
2022/08/20 10:09:39;;;;;;;9.57;1.60;;;22.00;99.90;;;;;;5036910;28;20067;-72
2022/08/20 10:12:04;;;;;;;11.18;1.63;;;22.00;99.90;;;;;;5028560;28;20044;-81
2022/08/20 10:14:30;;;;;;;5.97;1.92;;;22.00;99.90;;;;;;5034618;28;20132;-72
2022/08/20 10:16:58;;;;;;;5.20;1.15;;;21.90;99.90;;;;;;5051761;28;20076;-72
2022/08/20 10:19:24;;;;;;;6.20;1.40;;;21.80;99.90;;;;;;5034844;28;20033;-73
2022/08/20 10:21:51;;;;;;;5.93;1.27;;;21.70;99.90;;;;;;5050278;28;20029;-72
2022/08/20 10:24:17;;;;;;;5.85;1.40;;;21.60;99.90;;;;;;5035222;28;20126;-72
2022/08/20 10:26:43;;;;;;;6.43;1.20;;;21.70;99.90;;;;;;5034841;28;20041;-72
2022/08/20 10:29:09;;;;;;;5.68;1.90;;;21.80;99.90;;;;;;5037801;28;20056;-72
2022/08/20 10:31:34;;;;;;;6.50;1.20;;;22.00;99.90;;;;;;5048466;28;20037;-72
2022/08/20 10:34:00;;;;;;;5.40;1.20;;;22.10;99.90;;;;;;5031399;28;20049;-72
2022/08/20 10:36:26;;;;;;;5.63;1.40;;;22.20;99.90;;;;;;5045976;28;20030;-72
2022/08/20 10:38:51;;;;;;;6.50;1.35;;;22.20;99.90;;;;;;5065992;28;20028;-72
2022/08/20 10:41:18;;;;;;;6.00;1.42;;;22.50;99.90;;;;;;5034903;28;20110;-72
2022/08/20 10:43:43;;;;;;;6.70;1.05;;;22.60;99.90;;;;;;5034547;28;20123;-72
2022/08/20 10:46:09;;;;;;;6.05;1.25;;;22.50;99.90;;;;;;5022480;28;20484;-72
2022/08/20 10:48:35;;;;;;;7.45;1.80;;;22.70;99.40;;;;;;5048256;28;20045;-72
2022/08/20 10:51:00;;;;;;;5.38;1.10;;;22.80;99.90;;;;;;5043312;28;20523;-72
2022/08/20 10:53:26;;;;;;;7.05;1.40;;;22.90;99.90;;;;;;5037306;28;20036;-72
2022/08/20 10:55:53;;;;;;;6.60;1.50;;;22.90;99.90;;;;;;5055175;28;20041;-72
2022/08/20 10:58:19;;;;;;;6.70;1.30;;;22.80;99.90;;;;;;5039208;28;20497;-72
2022/08/20 11:00:45;;;;;;;7.25;1.42;;;22.70;99.90;;;;;;5047520;28;20079;-72
2022/08/20 11:03:11;;;;;;;7.10;1.25;;;22.60;99.90;;;;;;5035133;28;20401;-72
2022/08/20 11:05:36;;;;;;;6.63;1.80;;;22.50;99.90;;;;;;5060920;28;20037;-72
2022/08/20 11:08:03;;;;;;;4.82;1.20;;;22.50;99.90;;;;;;5053772;28;20064;-73
2022/08/20 11:10:32;;;;;;;5.38;1.40;;;22.50;99.90;;;;;;5038195;28;20045;-71
2022/08/20 11:12:59;;;;;;;5.50;1.38;;;22.60;99.90;;;;;;5049869;28;20033;-71
2022/08/20 11:15:25;;;;;;;7.20;1.50;;;22.70;99.90;;;;;;5050719;28;20056;-71
2022/08/20 11:17:51;;;;;;;7.07;1.65;;;22.70;99.90;;;;;;5024308;28;20050;-71
2022/08/20 11:20:19;;;;;;;5.78;1.30;;;22.70;99.90;;;;;;5033996;28;20508;-70
2022/08/20 11:22:45;;;;;;;5.82;1.40;;;22.80;99.90;;;;;;5051185;28;20124;-71
2022/08/20 11:25:11;;;;;;;5.60;1.60;;;22.90;99.90;;;;;;5047881;28;20120;-71
2022/08/20 11:27:39;;;;;;;8.25;1.50;;;22.80;99.90;;;;;;5050504;28;20079;-71
2022/08/20 11:30:09;;;;;;;7.10;1.52;;;22.80;99.70;;;;;;5061360;28;20137;-71
2022/08/20 11:32:35;;;;;;;7.35;1.50;;;22.80;99.90;;;;;;5042681;28;20041;-71
2022/08/20 11:35:00;;;;;;;5.85;1.33;;;22.70;99.90;;;;;;5051419;28;20040;-70
2022/08/20 11:37:26;;;;;;;5.13;1.50;;;22.70;99.90;;;;;;5060285;28;20049;-71
2022/08/20 11:39:52;;;;;;;5.55;1.60;;;22.50;99.90;;;;;;5042169;28;20028;-71
2022/08/20 11:42:19;;;;;;;6.28;1.35;;;22.40;99.90;;;;;;5045915;28;20104;-70
2022/08/20 11:44:44;;;;;;;5.57;1.38;;;22.40;99.90;;;;;;5068231;28;20072;-71
2022/08/20 11:47:23;;;;;;;6.82;1.70;;;22.50;99.90;;;;;;5033215;28;20493;-71
2022/08/20 11:49:58;;;;;;;6.97;1.75;;;22.60;99.90;;;;;;5020782;28;20041;-70
2022/08/20 11:52:24;;;;;;;8.98;1.67;;;22.50;99.90;;;;;;5033900;28;20060;-71
2022/08/20 11:54:50;;;;;;;7.80;1.70;;;22.40;99.90;;;;;;5033223;28;20116;-71
2022/08/20 11:57:24;;;;;;;7.38;2.03;;;22.40;99.90;;;;;;5034090;28;20125;-71
2022/08/20 11:59:51;;;;;;;5.22;1.48;;;22.40;99.90;;;;;;5043900;28;20051;-70
2022/08/20 12:02:17;;;;;;;6.05;1.40;;;22.50;99.90;;;;;;5046591;28;20041;-71
2022/08/20 12:04:43;;;;;;;6.97;1.40;;;22.60;99.90;;;;;;5053335;28;20480;-71
2022/08/20 12:07:14;;;;;;;7.82;1.52;;;22.60;99.90;;;;;;5050508;28;20439;-71
2022/08/20 12:09:40;;;;;;;6.65;1.70;;;22.60;99.30;;;;;;5060008;28;20445;-71
2022/08/20 12:12:07;;;;;;;5.45;1.90;;;22.60;98.90;;;;;;5055310;28;20045;-71
2022/08/20 12:14:32;;;;;;;4.63;1.80;;;22.50;99.20;;;;;;5052965;28;20102;-71
2022/08/20 12:17:10;;;;;;;6.40;1.75;;;22.50;99.70;;;;;;5035265;28;20592;-71
2022/08/20 12:19:40;;;;;;;5.38;1.50;;;22.40;99.80;;;;;;5051191;28;20555;-71
2022/08/20 12:22:06;;;;;;;8.40;1.60;;;22.30;99.90;;;;;;5059171;28;20037;-71
2022/08/20 12:24:31;;;;;;;6.32;1.45;;;22.30;99.90;;;;;;5045116;28;20095;-71
2022/08/20 12:27:21;;;;;;;6.25;1.35;;;22.20;99.90;;;;;;5037598;28;20066;-74
2022/08/20 12:29:51;;;;;;;6.72;1.50;;;22.10;99.90;;;;;;5030305;28;20519;-74
2022/08/20 12:32:18;;;;;;;5.35;1.50;;;22.00;99.90;;;;;;5030908;28;20052;-74
2022/08/20 12:34:43;;;;;;;6.20;1.52;;;22.00;99.90;;;;;;5049373;28;20046;-74
2022/08/20 12:37:16;;;;;;;5.43;1.40;;;22.10;99.90;;;;;;5024647;28;20033;-74
2022/08/20 12:39:44;;;;;;;6.85;1.58;;;22.30;99.90;;;;;;5040434;28;20032;-74
2022/08/20 12:42:11;;;;;;;9.80;1.90;;;22.30;99.90;;;;;;5052111;28;20401;-71
2022/08/20 12:44:37;;;;;;;6.15;1.42;;;22.30;99.90;;;;;;5030860;28;20091;-72
2022/08/20 12:47:12;;;;;;;6.47;1.60;;;22.20;99.90;;;;;;5032899;28;20151;-72
2022/08/20 12:49:40;;;;;;;7.55;1.60;;;22.20;99.90;;;;;;5060721;28;20082;-71
2022/08/20 12:52:06;;;;;;;7.50;2.00;;;22.30;99.90;;;;;;5043546;28;20102;-71
2022/08/20 12:54:32;;;;;;;6.20;1.50;;;22.30;99.90;;;;;;5051181;28;20063;-71
2022/08/20 12:56:57;;;;;;;7.68;2.00;;;22.20;99.50;;;;;;5031816;28;20029;-71
2022/08/20 12:59:24;;;;;;;4.97;1.55;;;22.40;99.90;;;;;;5031030;28;20045;-71